sensor_id;sensor_type;location;lat;lon;timestamp;P1;durP1;ratioP1;P2;durP2;ratioP2
21192;SDS011;10754;51.106;7.164;2023-07-16T00:01:56;1.52;;;0.80;;
21192;SDS011;10754;51.106;7.164;2023-07-16T00:04:22;1.08;;;0.90;;
21192;SDS011;10754;51.106;7.164;2023-07-16T00:06:48;1.65;;;1.13;;
21192;SDS011;10754;51.106;7.164;2023-07-16T00:09:13;1.38;;;0.70;;
21192;SDS011;10754;51.106;7.164;2023-07-16T00:11:39;1.42;;;1.10;;
21192;SDS011;10754;51.106;7.164;2023-07-16T00:14:04;2.33;;;0.90;;
21192;SDS011;10754;51.106;7.164;2023-07-16T00:16:30;1.42;;;0.80;;
21192;SDS011;10754;51.106;7.164;2023-07-16T00:18:55;1.15;;;0.82;;
21192;SDS011;10754;51.106;7.164;2023-07-16T00:21:21;0.80;;;0.70;;
21192;SDS011;10754;51.106;7.164;2023-07-16T00:23:46;1.60;;;0.90;;
21192;SDS011;10754;51.106;7.164;2023-07-16T00:26:12;1.60;;;0.80;;
21192;SDS011;10754;51.106;7.164;2023-07-16T00:28:38;2.35;;;1.23;;
21192;SDS011;10754;51.106;7.164;2023-07-16T00:31:04;1.73;;;1.00;;
21192;SDS011;10754;51.106;7.164;2023-07-16T00:33:29;2.13;;;1.15;;
21192;SDS011;10754;51.106;7.164;2023-07-16T00:35:55;3.67;;;1.25;;
21192;SDS011;10754;51.106;7.164;2023-07-16T00:38:20;2.80;;;0.93;;
21192;SDS011;10754;51.106;7.164;2023-07-16T00:40:46;3.65;;;1.40;;
21192;SDS011;10754;51.106;7.164;2023-07-16T00:43:12;1.65;;;1.00;;
21192;SDS011;10754;51.106;7.164;2023-07-16T00:45:38;1.65;;;0.73;;
21192;SDS011;10754;51.106;7.164;2023-07-16T00:48:06;3.45;;;1.35;;
21192;SDS011;10754;51.106;7.164;2023-07-16T00:50:33;1.33;;;0.82;;
21192;SDS011;10754;51.106;7.164;2023-07-16T00:53:04;1.80;;;1.00;;
21192;SDS011;10754;51.106;7.164;2023-07-16T00:55:34;2.42;;;0.98;;
21192;SDS011;10754;51.106;7.164;2023-07-16T00:58:03;3.17;;;1.00;;
21192;SDS011;10754;51.106;7.164;2023-07-16T01:00:32;1.77;;;0.90;;
21192;SDS011;10754;51.106;7.164;2023-07-16T01:03:00;3.80;;;1.05;;
21192;SDS011;10754;51.106;7.164;2023-07-16T01:08:12;3.25;;;0.98;;
21192;SDS011;10754;51.106;7.164;2023-07-16T01:10:42;1.70;;;0.82;;
21192;SDS011;10754;51.106;7.164;2023-07-16T01:13:09;2.75;;;1.00;;
21192;SDS011;10754;51.106;7.164;2023-07-16T01:15:35;3.17;;;1.00;;
21192;SDS011;10754;51.106;7.164;2023-07-16T01:18:00;2.60;;;1.10;;
21192;SDS011;10754;51.106;7.164;2023-07-16T01:20:26;2.60;;;1.00;;
21192;SDS011;10754;51.106;7.164;2023-07-16T01:23:01;2.33;;;0.90;;
21192;SDS011;10754;51.106;7.164;2023-07-16T01:31:33;2.95;;;1.00;;
21192;SDS011;10754;51.106;7.164;2023-07-16T01:33:59;2.20;;;1.10;;
21192;SDS011;10754;51.106;7.164;2023-07-16T01:36:28;1.83;;;0.88;;
21192;SDS011;10754;51.106;7.164;2023-07-16T01:38:55;2.85;;;1.30;;
21192;SDS011;10754;51.106;7.164;2023-07-16T01:41:21;5.35;;;1.13;;
21192;SDS011;10754;51.106;7.164;2023-07-16T01:43:46;3.50;;;0.90;;
21192;SDS011;10754;51.106;7.164;2023-07-16T01:46:12;2.63;;;0.90;;
21192;SDS011;10754;51.106;7.164;2023-07-16T01:48:37;2.40;;;1.08;;
21192;SDS011;10754;51.106;7.164;2023-07-16T01:51:04;3.08;;;1.10;;
21192;SDS011;10754;51.106;7.164;2023-07-16T01:53:30;3.00;;;1.10;;
21192;SDS011;10754;51.106;7.164;2023-07-16T01:55:56;1.75;;;0.95;;
21192;SDS011;10754;51.106;7.164;2023-07-16T01:58:22;1.52;;;0.80;;
21192;SDS011;10754;51.106;7.164;2023-07-16T02:00:49;2.63;;;1.10;;
21192;SDS011;10754;51.106;7.164;2023-07-16T02:03:15;2.30;;;1.00;;
21192;SDS011;10754;51.106;7.164;2023-07-16T02:05:41;2.70;;;1.17;;
21192;SDS011;10754;51.106;7.164;2023-07-16T02:08:06;2.97;;;1.08;;
21192;SDS011;10754;51.106;7.164;2023-07-16T02:10:32;3.35;;;0.95;;
21192;SDS011;10754;51.106;7.164;2023-07-16T02:12:57;3.17;;;1.20;;
21192;SDS011;10754;51.106;7.164;2023-07-16T02:15:23;2.45;;;0.90;;
21192;SDS011;10754;51.106;7.164;2023-07-16T02:17:48;6.03;;;1.17;;
21192;SDS011;10754;51.106;7.164;2023-07-16T02:20:14;2.22;;;1.20;;
21192;SDS011;10754;51.106;7.164;2023-07-16T02:22:39;2.33;;;1.35;;
21192;SDS011;10754;51.106;7.164;2023-07-16T02:25:05;1.95;;;0.90;;
21192;SDS011;10754;51.106;7.164;2023-07-16T02:27:31;3.08;;;1.17;;
21192;SDS011;10754;51.106;7.164;2023-07-16T02:29:57;1.90;;;1.10;;
21192;SDS011;10754;51.106;7.164;2023-07-16T02:32:22;2.05;;;1.00;;
21192;SDS011;10754;51.106;7.164;2023-07-16T02:34:48;3.47;;;0.98;;
21192;SDS011;10754;51.106;7.164;2023-07-16T02:37:13;2.55;;;1.10;;
21192;SDS011;10754;51.106;7.164;2023-07-16T02:39:40;2.25;;;0.70;;
21192;SDS011;10754;51.106;7.164;2023-07-16T02:42:06;2.05;;;0.85;;
21192;SDS011;10754;51.106;7.164;2023-07-16T02:44:32;2.72;;;0.98;;
21192;SDS011;10754;51.106;7.164;2023-07-16T02:46:58;1.08;;;0.70;;
21192;SDS011;10754;51.106;7.164;2023-07-16T02:49:23;1.83;;;0.90;;
21192;SDS011;10754;51.106;7.164;2023-07-16T02:51:49;2.63;;;1.42;;
21192;SDS011;10754;51.106;7.164;2023-07-16T02:54:14;1.92;;;0.90;;
21192;SDS011;10754;51.106;7.164;2023-07-16T02:56:40;3.70;;;1.23;;
21192;SDS011;10754;51.106;7.164;2023-07-16T02:59:05;1.88;;;0.80;;
21192;SDS011;10754;51.106;7.164;2023-07-16T03:01:31;1.52;;;1.02;;
21192;SDS011;10754;51.106;7.164;2023-07-16T03:03:56;3.95;;;1.02;;
21192;SDS011;10754;51.106;7.164;2023-07-16T03:06:22;2.47;;;0.95;;
21192;SDS011;10754;51.106;7.164;2023-07-16T03:08:47;1.85;;;0.90;;
21192;SDS011;10754;51.106;7.164;2023-07-16T03:11:13;4.43;;;1.25;;
21192;SDS011;10754;51.106;7.164;2023-07-16T03:13:38;1.58;;;0.90;;
21192;SDS011;10754;51.106;7.164;2023-07-16T03:16:04;2.35;;;1.17;;
21192;SDS011;10754;51.106;7.164;2023-07-16T03:18:30;1.38;;;0.90;;
21192;SDS011;10754;51.106;7.164;2023-07-16T03:20:56;1.58;;;0.93;;
21192;SDS011;10754;51.106;7.164;2023-07-16T03:23:22;2.42;;;0.93;;
21192;SDS011;10754;51.106;7.164;2023-07-16T03:25:48;1.92;;;0.98;;
21192;SDS011;10754;51.106;7.164;2023-07-16T03:28:14;1.58;;;0.80;;
21192;SDS011;10754;51.106;7.164;2023-07-16T03:30:40;1.90;;;0.80;;
21192;SDS011;10754;51.106;7.164;2023-07-16T03:33:09;2.17;;;1.10;;
21192;SDS011;10754;51.106;7.164;2023-07-16T03:35:35;2.60;;;1.08;;
21192;SDS011;10754;51.106;7.164;2023-07-16T03:38:00;2.15;;;0.80;;
21192;SDS011;10754;51.106;7.164;2023-07-16T03:40:26;2.33;;;1.15;;
21192;SDS011;10754;51.106;7.164;2023-07-16T03:42:52;2.08;;;1.02;;
21192;SDS011;10754;51.106;7.164;2023-07-16T03:45:18;2.13;;;0.95;;
21192;SDS011;10754;51.106;7.164;2023-07-16T03:47:44;3.50;;;1.10;;
21192;SDS011;10754;51.106;7.164;2023-07-16T03:50:10;3.03;;;1.17;;
21192;SDS011;10754;51.106;7.164;2023-07-16T03:52:35;9.57;;;1.77;;
21192;SDS011;10754;51.106;7.164;2023-07-16T03:55:01;2.97;;;1.38;;
21192;SDS011;10754;51.106;7.164;2023-07-16T03:57:30;2.38;;;1.10;;
21192;SDS011;10754;51.106;7.164;2023-07-16T03:59:55;1.50;;;1.08;;
21192;SDS011;10754;51.106;7.164;2023-07-16T04:02:21;2.58;;;1.10;;
21192;SDS011;10754;51.106;7.164;2023-07-16T04:04:47;3.17;;;1.60;;
21192;SDS011;10754;51.106;7.164;2023-07-16T04:07:12;3.40;;;1.35;;
21192;SDS011;10754;51.106;7.164;2023-07-16T04:09:38;2.17;;;1.10;;
21192;SDS011;10754;51.106;7.164;2023-07-16T04:12:04;2.88;;;1.05;;
21192;SDS011;10754;51.106;7.164;2023-07-16T04:14:32;14.75;;;1.30;;
21192;SDS011;10754;51.106;7.164;2023-07-16T04:16:58;4.65;;;1.40;;
21192;SDS011;10754;51.106;7.164;2023-07-16T04:19:24;2.80;;;1.50;;
21192;SDS011;10754;51.106;7.164;2023-07-16T04:21:49;2.28;;;1.20;;
21192;SDS011;10754;51.106;7.164;2023-07-16T04:24:15;1.80;;;1.10;;
21192;SDS011;10754;51.106;7.164;2023-07-16T04:26:40;2.17;;;1.10;;
21192;SDS011;10754;51.106;7.164;2023-07-16T04:29:06;4.28;;;1.58;;
21192;SDS011;10754;51.106;7.164;2023-07-16T04:31:31;4.28;;;1.35;;
21192;SDS011;10754;51.106;7.164;2023-07-16T04:33:57;3.40;;;1.05;;
21192;SDS011;10754;51.106;7.164;2023-07-16T04:36:22;3.67;;;1.23;;
21192;SDS011;10754;51.106;7.164;2023-07-16T04:38:48;2.15;;;1.02;;
21192;SDS011;10754;51.106;7.164;2023-07-16T04:41:14;1.80;;;1.20;;
21192;SDS011;10754;51.106;7.164;2023-07-16T04:43:41;2.80;;;1.40;;
21192;SDS011;10754;51.106;7.164;2023-07-16T04:46:06;2.38;;;1.10;;
21192;SDS011;10754;51.106;7.164;2023-07-16T04:48:32;3.83;;;1.20;;
21192;SDS011;10754;51.106;7.164;2023-07-16T04:50:57;2.63;;;1.45;;
21192;SDS011;10754;51.106;7.164;2023-07-16T04:53:23;2.28;;;1.10;;
21192;SDS011;10754;51.106;7.164;2023-07-16T04:55:49;3.63;;;1.40;;
21192;SDS011;10754;51.106;7.164;2023-07-16T04:58:14;3.47;;;1.48;;
21192;SDS011;10754;51.106;7.164;2023-07-16T05:00:40;2.47;;;1.13;;
21192;SDS011;10754;51.106;7.164;2023-07-16T05:03:06;4.47;;;1.60;;
21192;SDS011;10754;51.106;7.164;2023-07-16T05:05:31;2.45;;;1.20;;
21192;SDS011;10754;51.106;7.164;2023-07-16T05:07:57;2.60;;;1.42;;
21192;SDS011;10754;51.106;7.164;2023-07-16T05:10:23;3.53;;;1.27;;
21192;SDS011;10754;51.106;7.164;2023-07-16T05:12:49;4.55;;;1.40;;
21192;SDS011;10754;51.106;7.164;2023-07-16T05:15:14;3.63;;;1.60;;
21192;SDS011;10754;51.106;7.164;2023-07-16T05:17:40;2.97;;;1.38;;
21192;SDS011;10754;51.106;7.164;2023-07-16T05:20:07;3.75;;;1.33;;
21192;SDS011;10754;51.106;7.164;2023-07-16T05:22:34;4.43;;;1.42;;
21192;SDS011;10754;51.106;7.164;2023-07-16T05:24:59;3.17;;;1.70;;
21192;SDS011;10754;51.106;7.164;2023-07-16T05:27:25;2.45;;;1.35;;
21192;SDS011;10754;51.106;7.164;2023-07-16T05:29:50;2.92;;;1.55;;
21192;SDS011;10754;51.106;7.164;2023-07-16T05:32:16;5.10;;;1.95;;
21192;SDS011;10754;51.106;7.164;2023-07-16T05:34:41;2.40;;;1.60;;
21192;SDS011;10754;51.106;7.164;2023-07-16T05:37:07;2.92;;;1.63;;
21192;SDS011;10754;51.106;7.164;2023-07-16T05:39:32;2.95;;;1.65;;
21192;SDS011;10754;51.106;7.164;2023-07-16T05:41:58;5.13;;;1.90;;
21192;SDS011;10754;51.106;7.164;2023-07-16T05:44:26;5.35;;;1.88;;
21192;SDS011;10754;51.106;7.164;2023-07-16T05:46:51;4.75;;;1.90;;
21192;SDS011;10754;51.106;7.164;2023-07-16T05:49:17;3.20;;;1.55;;
21192;SDS011;10754;51.106;7.164;2023-07-16T05:51:42;3.58;;;1.90;;
21192;SDS011;10754;51.106;7.164;2023-07-16T05:54:08;5.00;;;1.90;;
21192;SDS011;10754;51.106;7.164;2023-07-16T05:56:33;3.38;;;1.85;;
21192;SDS011;10754;51.106;7.164;2023-07-16T05:58:59;4.40;;;2.45;;
21192;SDS011;10754;51.106;7.164;2023-07-16T06:01:24;4.60;;;2.20;;
21192;SDS011;10754;51.106;7.164;2023-07-16T06:03:50;4.68;;;2.08;;
21192;SDS011;10754;51.106;7.164;2023-07-16T06:06:15;4.80;;;2.20;;
21192;SDS011;10754;51.106;7.164;2023-07-16T06:08:41;5.55;;;2.10;;
21192;SDS011;10754;51.106;7.164;2023-07-16T06:11:06;6.15;;;2.60;;
21192;SDS011;10754;51.106;7.164;2023-07-16T06:13:32;4.30;;;2.08;;
21192;SDS011;10754;51.106;7.164;2023-07-16T06:15:57;4.72;;;2.13;;
21192;SDS011;10754;51.106;7.164;2023-07-16T06:18:23;4.97;;;2.30;;
21192;SDS011;10754;51.106;7.164;2023-07-16T06:20:48;4.50;;;2.35;;
21192;SDS011;10754;51.106;7.164;2023-07-16T06:23:15;3.88;;;2.40;;
21192;SDS011;10754;51.106;7.164;2023-07-16T06:25:42;3.00;;;1.90;;
21192;SDS011;10754;51.106;7.164;2023-07-16T06:28:11;6.25;;;2.67;;
21192;SDS011;10754;51.106;7.164;2023-07-16T06:30:37;4.18;;;2.47;;
21192;SDS011;10754;51.106;7.164;2023-07-16T06:33:04;4.55;;;2.60;;
21192;SDS011;10754;51.106;7.164;2023-07-16T06:35:29;6.03;;;2.67;;
21192;SDS011;10754;51.106;7.164;2023-07-16T06:37:55;4.85;;;2.45;;
21192;SDS011;10754;51.106;7.164;2023-07-16T06:40:20;5.03;;;2.47;;
21192;SDS011;10754;51.106;7.164;2023-07-16T06:42:46;5.32;;;2.85;;
21192;SDS011;10754;51.106;7.164;2023-07-16T06:45:11;2.22;;;1.80;;
21192;SDS011;10754;51.106;7.164;2023-07-16T06:47:37;4.22;;;2.20;;
21192;SDS011;10754;51.106;7.164;2023-07-16T06:50:02;5.18;;;2.45;;
21192;SDS011;10754;51.106;7.164;2023-07-16T06:52:28;4.90;;;2.85;;
21192;SDS011;10754;51.106;7.164;2023-07-16T06:54:55;5.22;;;2.55;;
21192;SDS011;10754;51.106;7.164;2023-07-16T06:57:22;5.95;;;3.00;;
21192;SDS011;10754;51.106;7.164;2023-07-16T06:59:48;4.18;;;2.78;;
21192;SDS011;10754;51.106;7.164;2023-07-16T07:02:15;4.65;;;2.50;;
21192;SDS011;10754;51.106;7.164;2023-07-16T07:04:41;3.25;;;2.58;;
21192;SDS011;10754;51.106;7.164;2023-07-16T07:07:07;5.50;;;2.55;;
21192;SDS011;10754;51.106;7.164;2023-07-16T07:09:32;3.17;;;2.25;;
21192;SDS011;10754;51.106;7.164;2023-07-16T07:11:58;5.25;;;2.78;;
21192;SDS011;10754;51.106;7.164;2023-07-16T07:14:23;5.00;;;2.47;;
21192;SDS011;10754;51.106;7.164;2023-07-16T07:16:49;4.70;;;3.10;;
21192;SDS011;10754;51.106;7.164;2023-07-16T07:19:14;3.50;;;2.10;;
21192;SDS011;10754;51.106;7.164;2023-07-16T07:21:40;3.85;;;2.22;;
21192;SDS011;10754;51.106;7.164;2023-07-16T07:24:05;5.47;;;2.40;;
21192;SDS011;10754;51.106;7.164;2023-07-16T07:26:31;3.05;;;2.08;;
21192;SDS011;10754;51.106;7.164;2023-07-16T07:28:56;3.92;;;2.45;;
21192;SDS011;10754;51.106;7.164;2023-07-16T07:31:22;4.20;;;2.75;;
21192;SDS011;10754;51.106;7.164;2023-07-16T07:33:47;4.32;;;2.70;;
21192;SDS011;10754;51.106;7.164;2023-07-16T07:36:13;3.55;;;2.33;;
21192;SDS011;10754;51.106;7.164;2023-07-16T07:38:38;3.53;;;2.10;;
21192;SDS011;10754;51.106;7.164;2023-07-16T07:41:05;3.20;;;2.30;;
21192;SDS011;10754;51.106;7.164;2023-07-16T07:43:31;4.68;;;2.42;;
21192;SDS011;10754;51.106;7.164;2023-07-16T07:45:56;3.85;;;2.58;;
21192;SDS011;10754;51.106;7.164;2023-07-16T07:48:22;10.35;;;3.08;;
21192;SDS011;10754;51.106;7.164;2023-07-16T07:50:47;4.95;;;3.30;;
21192;SDS011;10754;51.106;7.164;2023-07-16T07:53:13;4.32;;;2.53;;
21192;SDS011;10754;51.106;7.164;2023-07-16T07:55:39;3.78;;;2.30;;
21192;SDS011;10754;51.106;7.164;2023-07-16T07:58:06;3.88;;;2.53;;
21192;SDS011;10754;51.106;7.164;2023-07-16T08:00:32;4.95;;;2.40;;
21192;SDS011;10754;51.106;7.164;2023-07-16T08:02:58;4.40;;;2.42;;
21192;SDS011;10754;51.106;7.164;2023-07-16T08:05:24;3.50;;;2.03;;
21192;SDS011;10754;51.106;7.164;2023-07-16T08:07:49;2.90;;;2.30;;
21192;SDS011;10754;51.106;7.164;2023-07-16T08:10:15;6.20;;;2.67;;
21192;SDS011;10754;51.106;7.164;2023-07-16T08:12:40;5.45;;;2.58;;
21192;SDS011;10754;51.106;7.164;2023-07-16T08:15:06;4.30;;;2.60;;
21192;SDS011;10754;51.106;7.164;2023-07-16T08:17:34;3.47;;;2.45;;
21192;SDS011;10754;51.106;7.164;2023-07-16T08:19:59;3.90;;;2.50;;
21192;SDS011;10754;51.106;7.164;2023-07-16T08:22:25;4.80;;;2.85;;
21192;SDS011;10754;51.106;7.164;2023-07-16T08:24:51;3.70;;;2.63;;
21192;SDS011;10754;51.106;7.164;2023-07-16T08:27:16;4.20;;;2.70;;
21192;SDS011;10754;51.106;7.164;2023-07-16T08:29:43;3.97;;;2.63;;
21192;SDS011;10754;51.106;7.164;2023-07-16T08:32:09;4.53;;;2.75;;
21192;SDS011;10754;51.106;7.164;2023-07-16T08:34:34;4.05;;;2.75;;
21192;SDS011;10754;51.106;7.164;2023-07-16T08:37:00;3.85;;;2.60;;
21192;SDS011;10754;51.106;7.164;2023-07-16T08:39:25;3.85;;;2.70;;
21192;SDS011;10754;51.106;7.164;2023-07-16T08:41:51;3.03;;;2.20;;
21192;SDS011;10754;51.106;7.164;2023-07-16T08:44:17;3.92;;;2.90;;
21192;SDS011;10754;51.106;7.164;2023-07-16T08:46:42;3.28;;;2.33;;
21192;SDS011;10754;51.106;7.164;2023-07-16T08:49:08;3.22;;;2.50;;
21192;SDS011;10754;51.106;7.164;2023-07-16T08:51:35;4.78;;;2.83;;
21192;SDS011;10754;51.106;7.164;2023-07-16T08:54:03;3.50;;;2.70;;
21192;SDS011;10754;51.106;7.164;2023-07-16T08:56:28;3.33;;;2.53;;
21192;SDS011;10754;51.106;7.164;2023-07-16T08:58:54;5.75;;;2.78;;
21192;SDS011;10754;51.106;7.164;2023-07-16T09:01:21;3.42;;;2.60;;
21192;SDS011;10754;51.106;7.164;2023-07-16T09:03:46;4.10;;;2.03;;
21192;SDS011;10754;51.106;7.164;2023-07-16T09:06:12;4.57;;;2.70;;
21192;SDS011;10754;51.106;7.164;2023-07-16T09:08:37;3.63;;;2.40;;
21192;SDS011;10754;51.106;7.164;2023-07-16T09:11:03;4.55;;;2.50;;
21192;SDS011;10754;51.106;7.164;2023-07-16T09:13:29;3.15;;;2.40;;
21192;SDS011;10754;51.106;7.164;2023-07-16T09:15:56;3.58;;;2.30;;
21192;SDS011;10754;51.106;7.164;2023-07-16T09:18:23;3.35;;;2.08;;
21192;SDS011;10754;51.106;7.164;2023-07-16T09:20:56;2.88;;;2.25;;
21192;SDS011;10754;51.106;7.164;2023-07-16T09:23:26;3.40;;;2.03;;
21192;SDS011;10754;51.106;7.164;2023-07-16T09:25:52;3.88;;;2.42;;
21192;SDS011;10754;51.106;7.164;2023-07-16T09:28:19;9.07;;;2.50;;
21192;SDS011;10754;51.106;7.164;2023-07-16T09:30:45;9.45;;;2.65;;
21192;SDS011;10754;51.106;7.164;2023-07-16T09:33:15;2.10;;;1.85;;
21192;SDS011;10754;51.106;7.164;2023-07-16T09:35:42;3.72;;;1.98;;
21192;SDS011;10754;51.106;7.164;2023-07-16T09:38:08;2.92;;;2.08;;
21192;SDS011;10754;51.106;7.164;2023-07-16T09:40:35;2.88;;;2.00;;
21192;SDS011;10754;51.106;7.164;2023-07-16T09:43:02;3.47;;;2.05;;
21192;SDS011;10754;51.106;7.164;2023-07-16T09:45:27;3.35;;;2.30;;
21192;SDS011;10754;51.106;7.164;2023-07-16T09:47:53;3.08;;;2.13;;
21192;SDS011;10754;51.106;7.164;2023-07-16T09:50:19;3.08;;;1.92;;
21192;SDS011;10754;51.106;7.164;2023-07-16T09:52:46;3.75;;;2.22;;
21192;SDS011;10754;51.106;7.164;2023-07-16T09:55:12;2.72;;;2.33;;
21192;SDS011;10754;51.106;7.164;2023-07-16T09:57:41;3.55;;;2.20;;
21192;SDS011;10754;51.106;7.164;2023-07-16T10:00:11;3.92;;;2.33;;
21192;SDS011;10754;51.106;7.164;2023-07-16T10:02:39;3.95;;;1.65;;
21192;SDS011;10754;51.106;7.164;2023-07-16T10:05:18;4.35;;;1.90;;
21192;SDS011;10754;51.106;7.164;2023-07-16T10:07:49;2.42;;;1.77;;
21192;SDS011;10754;51.106;7.164;2023-07-16T10:10:16;4.05;;;1.85;;
21192;SDS011;10754;51.106;7.164;2023-07-16T10:12:42;3.92;;;2.00;;
21192;SDS011;10754;51.106;7.164;2023-07-16T10:15:24;2.78;;;2.17;;
21192;SDS011;10754;51.106;7.164;2023-07-16T10:17:53;4.93;;;2.10;;
21192;SDS011;10754;51.106;7.164;2023-07-16T10:20:29;2.40;;;1.80;;
21192;SDS011;10754;51.106;7.164;2023-07-16T10:23:09;3.15;;;1.67;;
21192;SDS011;10754;51.106;7.164;2023-07-16T10:25:38;2.30;;;2.10;;
21192;SDS011;10754;51.106;7.164;2023-07-16T10:28:05;6.25;;;1.90;;
21192;SDS011;10754;51.106;7.164;2023-07-16T10:30:31;3.47;;;1.67;;
21192;SDS011;10754;51.106;7.164;2023-07-16T10:32:57;2.58;;;1.55;;
21192;SDS011;10754;51.106;7.164;2023-07-16T10:35:25;3.22;;;2.10;;
21192;SDS011;10754;51.106;7.164;2023-07-16T10:37:50;2.35;;;1.90;;
21192;SDS011;10754;51.106;7.164;2023-07-16T10:40:16;2.67;;;1.55;;
21192;SDS011;10754;51.106;7.164;2023-07-16T10:42:42;3.45;;;2.05;;
21192;SDS011;10754;51.106;7.164;2023-07-16T10:45:09;2.28;;;1.80;;
21192;SDS011;10754;51.106;7.164;2023-07-16T10:47:36;2.70;;;1.77;;
21192;SDS011;10754;51.106;7.164;2023-07-16T10:50:04;2.25;;;1.77;;
21192;SDS011;10754;51.106;7.164;2023-07-16T10:52:35;3.38;;;1.73;;
21192;SDS011;10754;51.106;7.164;2023-07-16T10:55:01;3.50;;;2.10;;
21192;SDS011;10754;51.106;7.164;2023-07-16T10:57:27;2.63;;;1.45;;
21192;SDS011;10754;51.106;7.164;2023-07-16T10:59:54;4.03;;;1.80;;
21192;SDS011;10754;51.106;7.164;2023-07-16T11:02:21;2.47;;;1.65;;
21192;SDS011;10754;51.106;7.164;2023-07-16T11:04:48;2.22;;;1.67;;
21192;SDS011;10754;51.106;7.164;2023-07-16T11:07:14;4.30;;;1.70;;
21192;SDS011;10754;51.106;7.164;2023-07-16T11:09:41;3.72;;;1.65;;
21192;SDS011;10754;51.106;7.164;2023-07-16T11:12:12;2.40;;;1.90;;
21192;SDS011;10754;51.106;7.164;2023-07-16T11:14:39;5.15;;;1.77;;
21192;SDS011;10754;51.106;7.164;2023-07-16T11:17:09;6.97;;;1.90;;
21192;SDS011;10754;51.106;7.164;2023-07-16T11:19:35;2.78;;;2.00;;
21192;SDS011;10754;51.106;7.164;2023-07-16T11:22:03;3.13;;;1.73;;
21192;SDS011;10754;51.106;7.164;2023-07-16T11:24:39;3.05;;;1.88;;
21192;SDS011;10754;51.106;7.164;2023-07-16T11:27:13;3.05;;;1.80;;
21192;SDS011;10754;51.106;7.164;2023-07-16T11:29:40;3.80;;;2.08;;
21192;SDS011;10754;51.106;7.164;2023-07-16T11:32:10;2.13;;;1.73;;
21192;SDS011;10754;51.106;7.164;2023-07-16T11:34:35;7.13;;;1.90;;
21192;SDS011;10754;51.106;7.164;2023-07-16T11:37:07;3.50;;;2.03;;
21192;SDS011;10754;51.106;7.164;2023-07-16T11:39:34;2.72;;;1.75;;
21192;SDS011;10754;51.106;7.164;2023-07-16T11:42:00;2.60;;;1.80;;
21192;SDS011;10754;51.106;7.164;2023-07-16T11:44:32;3.63;;;2.30;;
21192;SDS011;10754;51.106;7.164;2023-07-16T11:46:58;2.08;;;1.73;;
21192;SDS011;10754;51.106;7.164;2023-07-16T11:49:24;2.63;;;2.00;;
21192;SDS011;10754;51.106;7.164;2023-07-16T11:51:50;1.67;;;1.42;;
21192;SDS011;10754;51.106;7.164;2023-07-16T11:54:15;2.30;;;1.88;;
21192;SDS011;10754;51.106;7.164;2023-07-16T11:56:41;2.28;;;1.90;;
21192;SDS011;10754;51.106;7.164;2023-07-16T11:59:06;3.38;;;1.92;;
21192;SDS011;10754;51.106;7.164;2023-07-16T12:01:32;2.20;;;1.60;;
21192;SDS011;10754;51.106;7.164;2023-07-16T12:03:57;2.75;;;2.00;;
21192;SDS011;10754;51.106;7.164;2023-07-16T12:06:23;1.92;;;1.70;;
21192;SDS011;10754;51.106;7.164;2023-07-16T12:08:48;3.05;;;1.70;;
21192;SDS011;10754;51.106;7.164;2023-07-16T12:11:14;3.13;;;2.25;;
21192;SDS011;10754;51.106;7.164;2023-07-16T12:13:39;1.90;;;1.65;;
21192;SDS011;10754;51.106;7.164;2023-07-16T12:16:05;2.35;;;2.10;;
21192;SDS011;10754;51.106;7.164;2023-07-16T12:18:31;2.17;;;1.38;;
21192;SDS011;10754;51.106;7.164;2023-07-16T12:20:56;4.03;;;2.03;;
21192;SDS011;10754;51.106;7.164;2023-07-16T12:23:22;2.28;;;1.80;;
21192;SDS011;10754;51.106;7.164;2023-07-16T12:25:48;3.00;;;2.20;;
21192;SDS011;10754;51.106;7.164;2023-07-16T12:28:14;2.58;;;1.95;;
21192;SDS011;10754;51.106;7.164;2023-07-16T12:30:40;3.40;;;2.05;;
21192;SDS011;10754;51.106;7.164;2023-07-16T12:33:06;3.30;;;2.33;;
21192;SDS011;10754;51.106;7.164;2023-07-16T12:35:31;2.30;;;1.63;;
21192;SDS011;10754;51.106;7.164;2023-07-16T12:37:57;2.22;;;1.70;;
21192;SDS011;10754;51.106;7.164;2023-07-16T12:40:23;3.03;;;1.88;;
21192;SDS011;10754;51.106;7.164;2023-07-16T12:42:49;3.53;;;2.03;;
21192;SDS011;10754;51.106;7.164;2023-07-16T12:45:14;2.97;;;1.80;;
21192;SDS011;10754;51.106;7.164;2023-07-16T12:47:40;3.38;;;2.17;;
21192;SDS011;10754;51.106;7.164;2023-07-16T12:50:07;2.22;;;1.90;;
21192;SDS011;10754;51.106;7.164;2023-07-16T12:52:33;3.47;;;2.20;;
21192;SDS011;10754;51.106;7.164;2023-07-16T12:54:58;2.80;;;1.90;;
21192;SDS011;10754;51.106;7.164;2023-07-16T12:57:24;2.72;;;2.00;;
21192;SDS011;10754;51.106;7.164;2023-07-16T12:59:49;3.38;;;2.25;;
21192;SDS011;10754;51.106;7.164;2023-07-16T13:02:15;2.85;;;1.73;;
21192;SDS011;10754;51.106;7.164;2023-07-16T13:04:40;2.97;;;1.98;;
21192;SDS011;10754;51.106;7.164;2023-07-16T13:07:06;2.05;;;1.83;;
21192;SDS011;10754;51.106;7.164;2023-07-16T13:09:31;3.15;;;1.88;;
21192;SDS011;10754;51.106;7.164;2023-07-16T13:11:57;3.00;;;1.75;;
21192;SDS011;10754;51.106;7.164;2023-07-16T13:14:22;2.50;;;1.70;;
21192;SDS011;10754;51.106;7.164;2023-07-16T13:16:48;3.50;;;2.10;;
21192;SDS011;10754;51.106;7.164;2023-07-16T13:19:13;2.92;;;2.00;;
21192;SDS011;10754;51.106;7.164;2023-07-16T13:21:39;2.58;;;1.75;;
21192;SDS011;10754;51.106;7.164;2023-07-16T13:24:04;4.13;;;2.05;;
21192;SDS011;10754;51.106;7.164;2023-07-16T13:26:30;3.40;;;1.92;;
21192;SDS011;10754;51.106;7.164;2023-07-16T13:28:56;5.30;;;2.03;;
21192;SDS011;10754;51.106;7.164;2023-07-16T13:31:21;2.55;;;1.85;;
21192;SDS011;10754;51.106;7.164;2023-07-16T13:33:47;3.28;;;2.20;;
21192;SDS011;10754;51.106;7.164;2023-07-16T13:36:12;3.42;;;2.08;;
21192;SDS011;10754;51.106;7.164;2023-07-16T13:38:37;3.75;;;1.92;;
21192;SDS011;10754;51.106;7.164;2023-07-16T13:41:03;3.20;;;1.95;;
21192;SDS011;10754;51.106;7.164;2023-07-16T13:43:28;2.70;;;2.20;;
21192;SDS011;10754;51.106;7.164;2023-07-16T13:45:54;2.70;;;1.85;;
21192;SDS011;10754;51.106;7.164;2023-07-16T13:48:19;3.15;;;1.98;;
21192;SDS011;10754;51.106;7.164;2023-07-16T13:50:45;2.92;;;1.83;;
21192;SDS011;10754;51.106;7.164;2023-07-16T13:53:10;1.98;;;1.65;;
21192;SDS011;10754;51.106;7.164;2023-07-16T13:55:36;2.30;;;1.95;;
21192;SDS011;10754;51.106;7.164;2023-07-16T13:58:02;2.50;;;2.13;;
21192;SDS011;10754;51.106;7.164;2023-07-16T14:00:27;2.33;;;1.90;;
21192;SDS011;10754;51.106;7.164;2023-07-16T14:02:53;2.95;;;2.20;;
21192;SDS011;10754;51.106;7.164;2023-07-16T14:05:18;3.08;;;2.05;;
21192;SDS011;10754;51.106;7.164;2023-07-16T14:07:45;2.45;;;2.20;;
21192;SDS011;10754;51.106;7.164;2023-07-16T14:10:11;4.35;;;2.28;;
21192;SDS011;10754;51.106;7.164;2023-07-16T14:12:37;2.47;;;1.95;;
21192;SDS011;10754;51.106;7.164;2023-07-16T14:15:03;2.55;;;2.00;;
21192;SDS011;10754;51.106;7.164;2023-07-16T14:17:29;3.70;;;1.95;;
21192;SDS011;10754;51.106;7.164;2023-07-16T14:19:54;3.00;;;2.20;;
21192;SDS011;10754;51.106;7.164;2023-07-16T14:22:20;3.00;;;2.10;;
21192;SDS011;10754;51.106;7.164;2023-07-16T14:24:51;3.28;;;1.98;;
21192;SDS011;10754;51.106;7.164;2023-07-16T14:27:21;2.17;;;1.70;;
21192;SDS011;10754;51.106;7.164;2023-07-16T14:29:47;3.00;;;2.13;;
21192;SDS011;10754;51.106;7.164;2023-07-16T14:32:13;2.70;;;1.75;;
21192;SDS011;10754;51.106;7.164;2023-07-16T14:34:39;3.08;;;2.10;;
21192;SDS011;10754;51.106;7.164;2023-07-16T14:37:04;3.40;;;1.92;;
21192;SDS011;10754;51.106;7.164;2023-07-16T14:39:30;2.13;;;1.60;;
21192;SDS011;10754;51.106;7.164;2023-07-16T14:41:55;2.60;;;1.88;;
21192;SDS011;10754;51.106;7.164;2023-07-16T14:44:21;1.95;;;1.73;;
21192;SDS011;10754;51.106;7.164;2023-07-16T14:46:46;2.25;;;1.75;;
21192;SDS011;10754;51.106;7.164;2023-07-16T14:49:12;3.95;;;2.15;;
21192;SDS011;10754;51.106;7.164;2023-07-16T14:51:37;3.10;;;1.70;;